Observation data for Fluvanna on 12/07/2018      Previous  Date       Current Mesonet Observations  Soil Data  Daily Summary Page  Observations in Plain Language
KFVS 070600Z 02009KT 02/M03 A303 RMK A01 T00181033  RH  070%=      5-min Rain = 0
KFVS 070605Z 04009KT 02/M03 A303 RMK A01 T00171033  RH  070%=      5-min Rain = 0
KFVS 070610Z 03007KT 02/M03 A303 RMK A01 T00181032  RH  070%=      5-min Rain = 0
KFVS 070615Z 05007KT 02/M03 A303 RMK A01 T00171032  RH  070%=      5-min Rain = 0
KFVS 070620Z 04007KT 02/M03 A303 RMK A01 T00181032  RH  070%=      5-min Rain = 0
KFVS 070625Z 05007KT 02/M03 A3029 RMK A01 T00181032  RH  070%=      5-min Rain = 0
KFVS 070630Z 06008KT 02/M03 A3029 RMK A01 T00181031  RH  070%=      5-min Rain = 0
KFVS 070635Z 06008KT 02/M03 A3029 RMK A01 T00181031  RH  070%=      5-min Rain = 0
KFVS 070640Z 05009KT 02/M03 A3029 RMK A01 T00181032  RH  070%=      5-min Rain = 0
KFVS 070645Z 04009KT 02/M03 A303 RMK A01 T00181032  RH  070%=      5-min Rain = 0
KFVS 070650Z 03009KT 02/M03 A303 RMK A01 T00181032  RH  070%=      5-min Rain = 0
KFVS 070655Z 03010KT 02/M03 A303 RMK A01 T00171033  RH  070%=      5-min Rain = 0
KFVS 070700Z 03009KT 02/M03 A3029 RMK A01 T00171033  RH  070%=      5-min Rain = 0
KFVS 070705Z 02009KT 02/M03 A3029 RMK A01 T00171033  RH  070%=      5-min Rain = 0
KFVS 070710Z 02007KT 02/M03 A303 RMK A01 T00171033  RH  070%=      5-min Rain = 0
KFVS 070715Z 02009KT 02/M03 A303 RMK A01 T00171033  RH  070%=      5-min Rain = 0
KFVS 070720Z 02010KT 02/M03 A3029 RMK A01 T00161033  RH  070%=      5-min Rain = 0
KFVS 070725Z 03010KT 02/M03 A3028 RMK A01 T00161033  RH  070%=      5-min Rain = 0
KFVS 070730Z 02010KT 02/M03 A3028 RMK A01 T00161033  RH  070%=      5-min Rain = 0
KFVS 070735Z 03008KT 02/M03 A3028 RMK A01 T00161033  RH  070%=      5-min Rain = 0
KFVS 070740Z 02008KT 02/M03 A3029 RMK A01 T00161033  RH  070%=      5-min Rain = 0
KFVS 070745Z 01007KT 02/M03 A303 RMK A01 T00171033  RH  070%=      5-min Rain = 0
KFVS 070750Z 01008KT 02/M03 A303 RMK A01 T00161034  RH  070%=      5-min Rain = 0
KFVS 070755Z 01008KT 02/M03 A303 RMK A01 T00161033  RH  070%=      5-min Rain = 0
KFVS 070800Z 01009KT 02/M03 A3029 RMK A01 T00161033  RH  070%=      5-min Rain = 0
KFVS 070805Z 01008KT 02/M03 A3029 RMK A01 T00161034  RH  070%=      5-min Rain = 0
KFVS 070810Z 01008KT 02/M03 A3029 RMK A01 T00161034  RH  070%=      5-min Rain = 0
KFVS 070815Z 00009KT 02/M04 A3029 RMK A01 T00161035  RH  070%=      5-min Rain = 0
KFVS 070820Z 00010KT 02/M04 A3029 RMK A01 T00151035  RH  070%=      5-min Rain = 0
KFVS 070825Z 00010KT 02/M04 A3029 RMK A01 T00151035  RH  070%=      5-min Rain = 0
KFVS 070830Z 00010KT 02/M04 A3029 RMK A01 T00151035  RH  070%=      5-min Rain = 0
KFVS 070835Z 01010KT 02/M04 A3029 RMK A01 T00151036  RH  070%=      5-min Rain = 0
KFVS 070840Z 02009KT 01/M04 A3029 RMK A01 T00141036  RH  070%=      5-min Rain = 0
KFVS 070845Z 02007KT 01/M04 A3029 RMK A01 T00141036  RH  070%=      5-min Rain = 0
KFVS 070850Z 02007KT 01/M04 A303 RMK A01 T00141036  RH  070%=      5-min Rain = 0
KFVS 070855Z 01006KT 01/M04 A303 RMK A01 T00141036  RH  070%=      5-min Rain = 0
KFVS 070900Z 01007KT 01/M04 A303 RMK A01 T00141036  RH  070%=      5-min Rain = 0
KFVS 070905Z 01007KT 01/M04 A303 RMK A01 T00141036  RH  070%=      5-min Rain = 0
KFVS 070910Z 01007KT 01/M04 A303 RMK A01 T00141036  RH  070%=      5-min Rain = 0
KFVS 070915Z 01007KT 02/M04 A303 RMK A01 T00151035  RH  070%=      5-min Rain = 0
KFVS 070920Z 00007KT 02/M04 A303 RMK A01 T00151035  RH  070%=      5-min Rain = 0
KFVS 070925Z 01008KT 02/M04 A303 RMK A01 T00151035  RH  070%=      5-min Rain = 0
KFVS 070930Z 36008KT 02/M04 A303 RMK A01 T00151035  RH  070%=      5-min Rain = 0
KFVS 070935Z 00008KT 02/M04 A303 RMK A01 T00151036  RH  070%=      5-min Rain = 0
KFVS 070940Z 36009KT 02/M04 A303 RMK A01 T00151036  RH  069%=      5-min Rain = 0
KFVS 070945Z 35008KT 02/M04 A303 RMK A01 T00151036  RH  069%=      5-min Rain = 0
KFVS 070950Z 35009KT 02/M04 A3031 RMK A01 T00151036  RH  070%=      5-min Rain = 0
KFVS 070955Z 36010KT 01/M04 A303 RMK A01 T00141036  RH  070%=      5-min Rain = 0
KFVS 071000Z 36010KT 01/M04 A303 RMK A01 T00141036  RH  070%=      5-min Rain = 0
KFVS 071005Z 00009KT 01/M04 A303 RMK A01 T00141036  RH  070%=      5-min Rain = 0
KFVS 071010Z 36009KT 02/M04 A303 RMK A01 T00151035  RH  070%=      5-min Rain = 0
KFVS 071015Z 36008KT 02/M04 A303 RMK A01 T00151035  RH  070%=      5-min Rain = 0
KFVS 071020Z 36009KT 01/M04 A303 RMK A01 T00141035  RH  070%=      5-min Rain = 0
KFVS 071025Z 01008KT 01/M04 A303 RMK A01 T00141035  RH  070%=      5-min Rain = 0
KFVS 071030Z 02008KT 01/M04 A303 RMK A01 T00141035  RH  070%=      5-min Rain = 0
KFVS 071035Z 01008KT 01/M04 A3029 RMK A01 T00141035  RH  071%=      5-min Rain = 0
KFVS 071040Z 03009KT 01/M03 A3029 RMK A01 T00131034  RH  071%=      5-min Rain = 0
KFVS 071045Z 02008KT 01/M03 A3029 RMK A01 T00131033  RH  072%=      5-min Rain = 0
KFVS 071050Z 02009KT 01/M03 A3028 RMK A01 T00121030  RH  074%=      5-min Rain = 0
KFVS 071055Z 03008KT 01/M03 A3028 RMK A01 T00111030  RH  075%=      5-min Rain = 0
KFVS 071100Z 03008KT 01/M03 A3027 RMK A01 T00101028  RH  076%=      5-min Rain = 0
KFVS 071105Z 03010KT 01/M03 A3027 RMK A01 T00101030  RH  075%=      5-min Rain = 0
KFVS 071110Z 03009KT 01/M03 A3027 RMK A01 T00101029  RH  075%=      5-min Rain = 0
KFVS 071115Z 04008KT 01/M03 A3026 RMK A01 T00101028  RH  076%=      5-min Rain = 0
KFVS 071120Z 05008KT 01/M03 A3026 RMK A01 T00101028  RH  076%=      5-min Rain = 0
KFVS 071125Z 07009KT 01/M03 A3025 RMK A01 T00101028  RH  077%=      5-min Rain = 0
KFVS 071130Z 08011KT 01/M03 A3024 RMK A01 T00091027  RH  077%=      5-min Rain = 0
KFVS 071135Z 09009KT 01/M03 A3024 RMK A01 T00091027  RH  077%=      5-min Rain = 0
KFVS 071140Z 09009KT 01/M03 A3024 RMK A01 T00101026  RH  077%=      5-min Rain = 0
KFVS 071145Z 09008KT 01/M02 A3025 RMK A01 T00101024  RH  078%=      5-min Rain = 0
KFVS 071150Z 09009KT 01/M02 A3025 RMK A01 T00091022  RH  080%=      5-min Rain = 0
KFVS 071155Z 09011KT 01/M02 A3025 RMK A01 T00091021  RH  081%=      5-min Rain = 0
KFVS 071200Z 09009KT 01/M02 A3025 RMK A01 T00081020  RH  082%=      5-min Rain = 0
KFVS 071205Z 10008KT 01/M02 A3025 RMK A01 T00071019  RH  084%=      5-min Rain = 0
KFVS 071210Z 09006KT 01/M02 A3026 RMK A01 T00071017  RH  084%=      5-min Rain = 0
KFVS 071215Z 06006KT 01/M02 A3026 RMK A01 T00071017  RH  085%=      5-min Rain = 0.01
KFVS 071220Z 01007KT 01/M01 A3027 RMK A01 T00071014  RH  087%=      5-min Rain = 0.01
KFVS 071225Z 35007KT 01/M01 A3028 RMK A01 T00071013  RH  087%=      5-min Rain = 0.01
KFVS 071230Z 35007KT 01/M01 A3028 RMK A01 T00071012  RH  088%=      5-min Rain = 0.01
KFVS 071235Z 33005KT 01/M01 A3029 RMK A01 T00071011  RH  088%=      5-min Rain = 0
KFVS 071240Z 31007KT 01/M01 A303 RMK A01 T00081009  RH  089%=      5-min Rain = 0.01
KFVS 071245Z 33008KT 01/M01 A303 RMK A01 T00071011  RH  089%=      5-min Rain = 0
KFVS 071250Z 35009KT 01/M01 A303 RMK A01 T00061011  RH  089%=      5-min Rain = 0
KFVS 071255Z 01009KT 01/M01 A3029 RMK A01 T00061012  RH  089%=      5-min Rain = 0
KFVS 071300Z 01009KT 01/M01 A3029 RMK A01 T00051013  RH  088%=      5-min Rain = 0
KFVS 071305Z 02008KT 01/M01 A3029 RMK A01 T00051014  RH  088%=      5-min Rain = 0
KFVS 071310Z 02006KT 01/M01 A303 RMK A01 T00051014  RH  088%=      5-min Rain = 0
KFVS 071315Z 02007KT 01/M01 A3029 RMK A01 T00051013  RH  089%=      5-min Rain = 0
KFVS 071320Z 02005KT 01/M01 A303 RMK A01 T00051012  RH  089%=      5-min Rain = 0.02
KFVS 071325Z 01005KT 01/M01 A303 RMK A01 T00051012  RH  090%=      5-min Rain = 0.01
KFVS 071330Z 03006KT 00/M01 A303 RMK A01 T00041012  RH  090%=      5-min Rain = 0
KFVS 071335Z 04007KT 00/M01 A303 RMK A01 T00041013  RH  089%=      5-min Rain = 0
KFVS 071340Z 04008KT 00/M01 A303 RMK A01 T00041012  RH  090%=      5-min Rain = 0
KFVS 071345Z 04008KT 00/M01 A303 RMK A01 T00041012  RH  090%=      5-min Rain = 0
KFVS 071350Z 04007KT 00/M01 A303 RMK A01 T00041011  RH  090%=      5-min Rain = 0
KFVS 071355Z 03007KT 01/M01 A303 RMK A01 T00051010  RH  091%=      5-min Rain = 0
KFVS 071400Z 04008KT 01/M01 A303 RMK A01 T00051010  RH  091%=      5-min Rain = 0
KFVS 071405Z 04008KT 00/M01 A3029 RMK A01 T00041010  RH  091%=      5-min Rain = 0
KFVS 071410Z 04008KT 01/M01 A3029 RMK A01 T00051010  RH  091%=      5-min Rain = 0
KFVS 071415Z 04007KT 01/M01 A303 RMK A01 T00051007  RH  092%=      5-min Rain = 0
KFVS 071420Z 03009KT 01/M01 A303 RMK A01 T00051009  RH  092%=      5-min Rain = 0
KFVS 071425Z 02008KT 01/M01 A303 RMK A01 T00051009  RH  091%=      5-min Rain = 0
KFVS 071430Z 04009KT 01/M01 A3029 RMK A01 T00051009  RH  092%=      5-min Rain = 0
KFVS 071435Z 05008KT 01/M01 A303 RMK A01 T00051009  RH  091%=      5-min Rain = 0
KFVS 071440Z 04006KT 01/M01 A303 RMK A01 T00051009  RH  091%=      5-min Rain = 0
KFVS 071445Z 04006KT 01/M01 A303 RMK A01 T00051008  RH  092%=      5-min Rain = 0
KFVS 071450Z 03007KT 01/M01 A303 RMK A01 T00051009  RH  092%=      5-min Rain = 0
KFVS 071455Z 03007KT 01/M01 A303 RMK A01 T00051010  RH  091%=      5-min Rain = 0
KFVS 071500Z 03007KT 01/M01 A3031 RMK A01 T00051008  RH  092%=      5-min Rain = 0
KFVS 071505Z 03007KT 00/M01 A3031 RMK A01 T00041010  RH  091%=      5-min Rain = 0
KFVS 071510Z 02007KT 00/M01 A3031 RMK A01 T00041010  RH  091%=      5-min Rain = 0
KFVS 071515Z 02007KT 00/M01 A3032 RMK A01 T00041011  RH  091%=      5-min Rain = 0
KFVS 071520Z 01009KT 00/M01 A3032 RMK A01 T00031011  RH  091%=      5-min Rain = 0
KFVS 071525Z 01008KT 00/M01 A3032 RMK A01 T00031010  RH  092%=      5-min Rain = 0
KFVS 071530Z 01009KT 00/M01 A3032 RMK A01 T00031009  RH  093%=      5-min Rain = 0
KFVS 071535Z 01009KT 00/M01 A3032 RMK A01 T00031009  RH  093%=      5-min Rain = 0
KFVS 071540Z 01010KT 00/M01 A3033 RMK A01 T00031009  RH  093%=      5-min Rain = 0
KFVS 071545Z 01008KT 00/M01 A3033 RMK A01 T00021011  RH  092%=      5-min Rain = 0
KFVS 071550Z 00009KT 00/M01 A3034 RMK A01 T00031009  RH  093%=      5-min Rain = 0
KFVS 071555Z 01008KT 00/M01 A3034 RMK A01 T00021009  RH  093%=      5-min Rain = 0
KFVS 071600Z 01007KT 00/M01 A3034 RMK A01 T00021010  RH  093%=      5-min Rain = 0
KFVS 071605Z 00009KT 00/M01 A3035 RMK A01 T00021009  RH  093%=      5-min Rain = 0
KFVS 071610Z 00008KT 00/M01 A3034 RMK A01 T00021008  RH  094%=      5-min Rain = 0
KFVS 071615Z 01009KT 00/M01 A3034 RMK A01 T00021008  RH  094%=      5-min Rain = 0
KFVS 071620Z 01008KT 00/M01 A3034 RMK A01 T00021007  RH  095%=      5-min Rain = 0
KFVS 071625Z 02008KT 00/M01 A3034 RMK A01 T00021006  RH  095%=      5-min Rain = 0
KFVS 071630Z 02009KT 00/M01 A3034 RMK A01 T00031008  RH  094%=      5-min Rain = 0
KFVS 071635Z 02009KT 00/M01 A3034 RMK A01 T00031009  RH  093%=      5-min Rain = 0
KFVS 071640Z 03010KT 00/M01 A3033 RMK A01 T00031008  RH  093%=      5-min Rain = 0
KFVS 071645Z 03009KT 00/M01 A3033 RMK A01 T00041006  RH  094%=      5-min Rain = 0
KFVS 071650Z 03009KT 00/M01 A3032 RMK A01 T00041006  RH  094%=      5-min Rain = 0
KFVS 071655Z 03009KT 00/M01 A3032 RMK A01 T00041007  RH  094%=      5-min Rain = 0
KFVS 071700Z 03010KT 00/M01 A3032 RMK A01 T00041007  RH  094%=      5-min Rain = 0
KFVS 071705Z 03009KT 00/M01 A3032 RMK A01 T00041005  RH  094%=      5-min Rain = 0
KFVS 071710Z 03010KT 01/M00 A3032 RMK A01 T00051004  RH  095%=      5-min Rain = 0
KFVS 071715Z 03009KT 01/M00 A3032 RMK A01 T00051004  RH  095%=      5-min Rain = 0
KFVS 071720Z 03012KT 00/M01 A3031 RMK A01 T00041005  RH  095%=      5-min Rain = 0
KFVS 071725Z 03011KT 00/M00 A3031 RMK A01 T00031004  RH  096%=      5-min Rain = 0
KFVS 071730Z 03011KT 00/M00 A3031 RMK A01 T00041004  RH  096%=      5-min Rain = 0
KFVS 071735Z 03009KT 00/M00 A303 RMK A01 T00041003  RH  096%=      5-min Rain = 0
KFVS 071740Z 03010KT 01/M00 A303 RMK A01 T00051002  RH  096%=      5-min Rain = 0
KFVS 071745Z 03012KT 00/M00 A303 RMK A01 T00041003  RH  096%=      5-min Rain = 0
KFVS 071750Z 03012KT 00/M01 A3029 RMK A01 T00041005  RH  095%=      5-min Rain = 0
KFVS 071755Z 03012KT 00/M01 A3029 RMK A01 T00041005  RH  095%=      5-min Rain = 0
KFVS 071800Z 04011KT 00/M00 A3028 RMK A01 T00041004  RH  095%=      5-min Rain = 0
KFVS 071805Z 03012KT 00/M01 A3028 RMK A01 T00041005  RH  095%=      5-min Rain = 0
KFVS 071810Z 03010KT 01/M00 A3028 RMK A01 T00051004  RH  095%=      5-min Rain = 0
KFVS 071815Z 03010KT 01/M00 A3028 RMK A01 T00051003  RH  096%=      5-min Rain = 0
KFVS 071820Z 03010KT 01/M00 A3028 RMK A01 T00051003  RH  096%=      5-min Rain = 0
KFVS 071825Z 03010KT 01/M00 A3028 RMK A01 T00061002  RH  096%=      5-min Rain = 0
KFVS 071830Z 03010KT 01/M00 A3028 RMK A01 T00051002  RH  096%=      5-min Rain = 0
KFVS 071835Z 03011KT 01/M00 A3027 RMK A01 T00051002  RH  096%=      5-min Rain = 0
KFVS 071840Z 03012KT 01/M00 A3027 RMK A01 T00051003  RH  096%=      5-min Rain = 0
KFVS 071845Z 03011KT 01/M00 A3027 RMK A01 T00051002  RH  096%=      5-min Rain = 0
KFVS 071850Z 03010KT 01/00 A3026 RMK A01 T000600-0  RH  096%=      5-min Rain = 0
KFVS 071855Z 03010KT 01/00 A3026 RMK A01 T00070000  RH  097%=      5-min Rain = 0
KFVS 071900Z 02011KT 01/M00 A3025 RMK A01 T00051001  RH  097%=      5-min Rain = 0
KFVS 071905Z 02011KT 01/00 A3025 RMK A01 T00050000  RH  097%=      5-min Rain = 0
KFVS 071910Z 02012KT 01/00 A3024 RMK A01 T000500-0  RH  097%=      5-min Rain = 0
KFVS 071915Z 02012KT 01/00 A3024 RMK A01 T00060001  RH  098%=      5-min Rain = 0
KFVS 071920Z 02011KT 01/00 A3024 RMK A01 T000500-0  RH  098%=      5-min Rain = 0
KFVS 071925Z 02012KT 01/00 A3024 RMK A01 T00060001  RH  098%=      5-min Rain = 0
KFVS 071930Z 03011KT 01/00 A3023 RMK A01 T00050001  RH  098%=      5-min Rain = 0
KFVS 071935Z 02010KT 01/00 A3024 RMK A01 T00060001  RH  098%=      5-min Rain = 0
KFVS 071940Z 03011KT 01/00 A3023 RMK A01 T00060002  RH  098%=      5-min Rain = 0
KFVS 071945Z 03011KT 01/00 A3023 RMK A01 T00050001  RH  098%=      5-min Rain = 0
KFVS 071950Z 03009KT 01/00 A3024 RMK A01 T00060001  RH  098%=      5-min Rain = 0
KFVS 071955Z 02010KT 01/00 A3024 RMK A01 T00070002  RH  098%=      5-min Rain = 0
KFVS 072000Z 02012KT 01/00 A3024 RMK A01 T00050001  RH  098%=      5-min Rain = 0
KFVS 072005Z 02012KT 01/00 A3024 RMK A01 T00050001  RH  098%=      5-min Rain = 0
KFVS 072010Z 02011KT 01/00 A3024 RMK A01 T00050001  RH  098%=      5-min Rain = 0
KFVS 072015Z 02012KT 01/00 A3024 RMK A01 T00050001  RH  098%=      5-min Rain = 0
KFVS 072020Z 02010G15KT 01/00 A3024 RMK A01 T00050001  RH  098%=      5-min Rain = 0
KFVS 072025Z 03010KT 01/00 A3024 RMK A01 T00060002  RH  098%=      5-min Rain = 0
KFVS 072030Z 04010KT 01/00 A3023 RMK A01 T00050001  RH  098%=      5-min Rain = 0
KFVS 072035Z 03011KT 01/00 A3023 RMK A01 T00060002  RH  098%=      5-min Rain = 0
KFVS 072040Z 02010KT 01/00 A3023 RMK A01 T00060002  RH  098%=      5-min Rain = 0
KFVS 072045Z 02011KT 01/00 A3023 RMK A01 T00050001  RH  098%=      5-min Rain = 0
KFVS 072050Z 04013KT 01/00 A3022 RMK A01 T00050001  RH  098%=      5-min Rain = 0
KFVS 072055Z 03010KT 00/00 A3022 RMK A01 T00040000  RH  098%=      5-min Rain = 0
KFVS 072100Z 03011KT 01/00 A3022 RMK A01 T00050001  RH  098%=      5-min Rain = 0
KFVS 072105Z 02012KT 00/00 A3023 RMK A01 T00040000  RH  098%=      5-min Rain = 0
KFVS 072110Z 02012KT 00/00 A3023 RMK A01 T00040001  RH  098%=      5-min Rain = 0
KFVS 072115Z 02011KT 01/00 A3023 RMK A01 T00050001  RH  098%=      5-min Rain = 0
KFVS 072120Z 02013KT 00/00 A3023 RMK A01 T00040000  RH  098%=      5-min Rain = 0
KFVS 072125Z 03012KT 00/M00 A3023 RMK A01 T00031001  RH  098%=      5-min Rain = 0
KFVS 072130Z 03013KT 00/M00 A3022 RMK A01 T00031001  RH  098%=      5-min Rain = 0
KFVS 072135Z 03013KT 00/M00 A3022 RMK A01 T00021002  RH  098%=      5-min Rain = 0
KFVS 072140Z 03011KT 00/M00 A3022 RMK A01 T00031001  RH  099%=      5-min Rain = 0
KFVS 072145Z 02012KT 00/M00 A3022 RMK A01 T00031001  RH  099%=      5-min Rain = 0
KFVS 072150Z 02012KT 00/M00 A3022 RMK A01 T00031001  RH  099%=      5-min Rain = 0
KFVS 072155Z 02012KT 00/M00 A3022 RMK A01 T00021002  RH  099%=      5-min Rain = 0
KFVS 072200Z 02013KT 00/M00 A3022 RMK A01 T00011002  RH  098%=      5-min Rain = 0
KFVS 072205Z 02013KT 00/M00 A3022 RMK A01 T00021002  RH  099%=      5-min Rain = 0
KFVS 072210Z 02014KT 00/M00 A3021 RMK A01 T00011002  RH  099%=      5-min Rain = 0
KFVS 072215Z 03014KT 00/M00 A3021 RMK A01 T00011003  RH  098%=      5-min Rain = 0
KFVS 072220Z 03013G18KT 00/M00 A3021 RMK A01 T00011002  RH  098%=      5-min Rain = 0
KFVS 072225Z 03012KT 00/M00 A3022 RMK A01 T00021002  RH  099%=      5-min Rain = 0
KFVS 072230Z 02012KT 00/M00 A3022 RMK A01 T00021002  RH  099%=      5-min Rain = 0
KFVS 072235Z 02012KT 00/M00 A3022 RMK A01 T00021001  RH  099%=      5-min Rain = 0
KFVS 072240Z 02012KT 00/M00 A3022 RMK A01 T00021002  RH  099%=      5-min Rain = 0
KFVS 072245Z 03013KT 00/M00 A3022 RMK A01 T00021002  RH  099%=      5-min Rain = 0
KFVS 072250Z 02011KT 00/M00 A3023 RMK A01 T00021002  RH  099%=      5-min Rain = 0
KFVS 072255Z 01012KT 00/M00 A3024 RMK A01 T00011002  RH  099%=      5-min Rain = 0
KFVS 072300Z 01010KT 00/M00 A3024 RMK A01 T00021002  RH  099%=      5-min Rain = 0
KFVS 072305Z 01010KT 00/M00 A3025 RMK A01 T00021002  RH  099%=      5-min Rain = 0
KFVS 072310Z 01010KT 00/M00 A3025 RMK A01 T00021002  RH  099%=      5-min Rain = 0
KFVS 072315Z 01010KT 00/M00 A3025 RMK A01 T00021002  RH  099%=      5-min Rain = 0
KFVS 072320Z 01010KT 00/M00 A3026 RMK A01 T00021002  RH  099%=      5-min Rain = 0
KFVS 072325Z 02007KT 00/M00 A3026 RMK A01 T00031001  RH  099%=      5-min Rain = 0
KFVS 072330Z 01008KT 00/M00 A3026 RMK A01 T00031001  RH  098%=      5-min Rain = 0
KFVS 072335Z 00008KT 00/M00 A3026 RMK A01 T00021001  RH  098%=      5-min Rain = 0
KFVS 072340Z 01008KT 00/M00 A3026 RMK A01 T00021001  RH  098%=      5-min Rain = 0
KFVS 072345Z 02008KT 00/M00 A3025 RMK A01 T00021002  RH  098%=      5-min Rain = 0
KFVS 072350Z 03008KT 00/M00 A3025 RMK A01 T00021002  RH  098%=      5-min Rain = 0
KFVS 072355Z 04008KT 00/M00 A3024 RMK A01 T00021002  RH  098%=      5-min Rain = 0
KFVS 080000Z 04008KT 00/M00 A3024 RMK A01 T00021001  RH  098%=      5-min Rain = 0.01
KFVS 080005Z 03008KT 00/M00 A3024 RMK A01 T00031001  RH  098%=      5-min Rain = 0
KFVS 080010Z 04007KT 00/M00 A3024 RMK A01 T00031001  RH  098%=      5-min Rain = 0
KFVS 080015Z 03009KT 00/M00 A3023 RMK A01 T00031001  RH  098%=      5-min Rain = 0
KFVS 080020Z 03009KT 00/M00 A3023 RMK A01 T00031001  RH  098%=      5-min Rain = 0
KFVS 080025Z 03008KT 00/M00 A3023 RMK A01 T00031001  RH  098%=      5-min Rain = 0
KFVS 080030Z 03009KT 00/00 A3023 RMK A01 T000400-0  RH  098%=      5-min Rain = 0
KFVS 080035Z 03010KT 00/M00 A3022 RMK A01 T00031001  RH  098%=      5-min Rain = 0.01
KFVS 080040Z 04010KT 00/M00 A3022 RMK A01 T00031001  RH  098%=      5-min Rain = 0
KFVS 080045Z 03009KT 00/M00 A3023 RMK A01 T00031001  RH  098%=      5-min Rain = 0
KFVS 080050Z 03008KT 00/M00 A3023 RMK A01 T00031001  RH  098%=      5-min Rain = 0
KFVS 080055Z 03008KT 00/M00 A3024 RMK A01 T00031002  RH  098%=      5-min Rain = 0.01
KFVS 080100Z 03007KT 00/M00 A3025 RMK A01 T00041001  RH  098%=      5-min Rain = 0
KFVS 080105Z 02007KT 00/M00 A3025 RMK A01 T00041001  RH  098%=      5-min Rain = 0
KFVS 080110Z 02008KT 00/M00 A3025 RMK A01 T00041001  RH  098%=      5-min Rain = 0
KFVS 080115Z 02007KT 00/M00 A3026 RMK A01 T00041001  RH  098%=      5-min Rain = 0.01
KFVS 080120Z 02008KT 00/M00 A3026 RMK A01 T00041001  RH  098%=      5-min Rain = 0
KFVS 080125Z 02009KT 00/M00 A3026 RMK A01 T00041001  RH  098%=      5-min Rain = 0
KFVS 080130Z 02009KT 01/00 A3026 RMK A01 T000500-0  RH  098%=      5-min Rain = 0
KFVS 080135Z 02009KT 00/M00 A3026 RMK A01 T00041001  RH  097%=      5-min Rain = 0.01
KFVS 080140Z 03010KT 00/M00 A3025 RMK A01 T00041001  RH  097%=      5-min Rain = 0.01
KFVS 080145Z 03010KT 00/M00 A3025 RMK A01 T00041001  RH  098%=      5-min Rain = 0.01
KFVS 080150Z 03009KT 00/M00 A3026 RMK A01 T00041001  RH  098%=      5-min Rain = 0.01
KFVS 080155Z 02009KT 00/M00 A3026 RMK A01 T00041001  RH  098%=      5-min Rain = 0.01
KFVS 080200Z 03008KT 00/M00 A3026 RMK A01 T00041001  RH  098%=      5-min Rain = 0.01
KFVS 080205Z 03008KT 00/M00 A3027 RMK A01 T00041001  RH  098%=      5-min Rain = 0
KFVS 080210Z 04007KT 00/M00 A3026 RMK A01 T00041001  RH  098%=      5-min Rain = 0.01
KFVS 080215Z 04010G15KT 00/M00 A3026 RMK A01 T00041001  RH  097%=      5-min Rain = 0
KFVS 080220Z 03011KT 00/M00 A3027 RMK A01 T00041002  RH  097%=      5-min Rain = 0
KFVS 080225Z 03010KT 00/M00 A3027 RMK A01 T00041002  RH  097%=      5-min Rain = 0
KFVS 080230Z 03010KT 00/M00 A3027 RMK A01 T00041003  RH  097%=      5-min Rain = 0.01
KFVS 080235Z 03010KT 00/M00 A3028 RMK A01 T00031003  RH  097%=      5-min Rain = 0
KFVS 080240Z 03010KT 00/M00 A3029 RMK A01 T00031004  RH  096%=      5-min Rain = 0
KFVS 080245Z 03010KT 00/M00 A3029 RMK A01 T00031004  RH  096%=      5-min Rain = 0.01
KFVS 080250Z 03010KT 00/M00 A3028 RMK A01 T00031004  RH  096%=      5-min Rain = 0.02
KFVS 080255Z 03010KT 00/M01 A3028 RMK A01 T00021005  RH  096%=      5-min Rain = 0.01
KFVS 080300Z 03010KT 00/M00 A3027 RMK A01 T00021004  RH  097%=      5-min Rain = 0.02
KFVS 080305Z 03010KT 00/M01 A3027 RMK A01 T00011005  RH  097%=      5-min Rain = 0.01
KFVS 080310Z 03011KT 00/M01 A3027 RMK A01 T00011005  RH  097%=      5-min Rain = 0.01
KFVS 080315Z 03010KT 00/01 A3027 RMK A01 T000000-6  RH  097%=      5-min Rain = 0.01
KFVS 080320Z 03009KT 00/01 A3027 RMK A01 T000000-5  RH  097%=      5-min Rain = 0.01
KFVS 080325Z 03010KT 00/01 A3027 RMK A01 T000000-6  RH  097%=      5-min Rain = 0.01
KFVS 080330Z 02009KT 00/01 A3028 RMK A01 T00-000-6  RH  097%=      5-min Rain = 0.01
KFVS 080335Z 02010KT M00/M01 A3028 RMK A01 T10011006  RH  097%=      5-min Rain = 0
KFVS 080340Z 02009KT M00/M01 A3028 RMK A01 T10011006  RH  097%=      5-min Rain = 0.01
KFVS 080345Z 02011KT M00/M01 A3028 RMK A01 T10011007  RH  097%=      5-min Rain = 0
KFVS 080350Z 02012KT M00/M01 A3027 RMK A01 T10021008  RH  097%=      5-min Rain = 0
KFVS 080355Z 03011KT M00/M01 A3027 RMK A01 T10031008  RH  097%=      5-min Rain = 0
KFVS 080400Z 02011KT M00/M01 A3027 RMK A01 T10031009  RH  097%=      5-min Rain = 0.01
KFVS 080405Z 02012KT M00/M01 A3026 RMK A01 T10031009  RH  097%=      5-min Rain = 0
KFVS 080410Z 02011KT M00/M01 A3025 RMK A01 T10031008  RH  097%=      5-min Rain = 0
KFVS 080415Z 02011KT M00/M01 A3025 RMK A01 T10031008  RH  098%=      5-min Rain = 0.01
KFVS 080420Z 03010KT M00/M01 A3026 RMK A01 T10041008  RH  098%=      5-min Rain = 0
KFVS 080425Z 01011KT M00/M01 A3026 RMK A01 T10041009  RH  098%=      5-min Rain = 0.01
KFVS 080430Z 01010KT M00/M01 A3026 RMK A01 T10041008  RH  098%=      5-min Rain = 0
KFVS 080435Z 02010KT M00/M01 A3025 RMK A01 T10041008  RH  098%=      5-min Rain = 0.01
KFVS 080440Z 02011KT M00/M01 A3025 RMK A01 T10041008  RH  098%=      5-min Rain = 0
KFVS 080445Z 02011KT M00/M01 A3025 RMK A01 T10041009  RH  098%=      5-min Rain = 0.01
KFVS 080450Z 02011KT M01/M01 A3025 RMK A01 T10051009  RH  098%=      5-min Rain = 0
KFVS 080455Z 02011KT M01/M01 A3025 RMK A01 T10051009  RH  098%=      5-min Rain = 0
KFVS 080500Z 02011KT M01/M01 A3026 RMK A01 T10051009  RH  098%=      5-min Rain = 0
KFVS 080505Z 02012KT M01/M01 A3025 RMK A01 T10051010  RH  097%=      5-min Rain = 0
KFVS 080510Z 02011G16KT M01/M01 A3025 RMK A01 T10051011  RH  097%=      5-min Rain = 0.01
KFVS 080515Z 02012KT M01/M01 A3025 RMK A01 T10051011  RH  097%=      5-min Rain = 0
KFVS 080520Z 02011KT M01/M01 A3025 RMK A01 T10051011  RH  097%=      5-min Rain = 0
KFVS 080525Z 03011KT M01/M01 A3024 RMK A01 T10051011  RH  097%=      5-min Rain = 0
KFVS 080530Z 03012KT M01/M01 A3024 RMK A01 T10051010  RH  097%=      5-min Rain = 0
KFVS 080535Z 02011KT M01/M01 A3023 RMK A01 T10051010  RH  097%=      5-min Rain = 0
KFVS 080540Z 02010KT M01/M01 A3024 RMK A01 T10051010  RH  097%=      5-min Rain = 0
KFVS 080545Z 02010KT M01/M01 A3024 RMK A01 T10051010  RH  097%=      5-min Rain = 0
KFVS 080550Z 02009KT M01/M01 A3025 RMK A01 T10051010  RH  097%=      5-min Rain = 0
KFVS 080555Z 01009KT M01/M01 A3024 RMK A01 T10051010  RH  098%=      5-min Rain = 0.01

Page generated in 0.0091 seconds.